createdAt,value
2022-12-11T00:00:16.274Z,-2.50
2022-12-11T00:01:16.259Z,-2.49
2022-12-11T00:02:16.325Z,-2.55
2022-12-11T00:03:16.542Z,-2.49
2022-12-11T00:04:16.234Z,-2.50
2022-12-11T00:05:16.235Z,-2.49
2022-12-11T00:06:16.215Z,-2.49
2022-12-11T00:07:16.191Z,-2.49
2022-12-11T00:08:16.239Z,-2.48
2022-12-11T00:09:16.185Z,-2.42
2022-12-11T00:10:16.179Z,-2.48
2022-12-11T00:11:16.162Z,-2.48
2022-12-11T00:12:16.153Z,-2.43
2022-12-11T00:13:16.126Z,-2.40
2022-12-11T00:14:16.147Z,-2.49
2022-12-11T00:15:16.200Z,-2.48
2022-12-11T00:16:16.176Z,-2.46
2022-12-11T00:17:16.087Z,-2.40
2022-12-11T00:18:16.092Z,-2.46
2022-12-11T00:19:16.054Z,-2.46
2022-12-11T00:20:16.050Z,-2.37
2022-12-11T00:21:16.033Z,-2.46
2022-12-11T00:22:16.033Z,-2.46
2022-12-11T00:23:16.042Z,-2.43
2022-12-11T00:24:16.009Z,-2.48
2022-12-11T00:25:15.996Z,-2.50
2022-12-11T00:26:16.004Z,-2.49
2022-12-11T00:27:16.108Z,-2.55
2022-12-11T00:28:15.966Z,-2.55
2022-12-11T00:29:15.972Z,-2.61
2022-12-11T00:30:15.958Z,-2.66
2022-12-11T00:31:15.922Z,-2.63
2022-12-11T00:32:16.007Z,-2.61
2022-12-11T00:33:15.899Z,-2.68
2022-12-11T00:34:15.899Z,-2.58
2022-12-11T00:35:15.881Z,-2.67
2022-12-11T00:36:15.880Z,-2.68
2022-12-11T00:37:16.088Z,-2.70
2022-12-11T00:38:15.848Z,-2.73
2022-12-11T00:39:15.830Z,-2.73
2022-12-11T00:40:15.829Z,-2.67
2022-12-11T00:41:15.812Z,-2.67
2022-12-11T00:42:15.825Z,-2.66
2022-12-11T00:43:15.804Z,-2.68
2022-12-11T00:44:15.802Z,-2.74
2022-12-11T00:45:15.787Z,-2.67
2022-12-11T00:46:15.810Z,-2.73
2022-12-11T00:47:15.743Z,-2.68
2022-12-11T00:48:15.762Z,-2.73
2022-12-11T00:49:15.721Z,-2.77
2022-12-11T00:50:15.735Z,-2.67
2022-12-11T00:51:15.751Z,-2.74
2022-12-11T00:52:15.695Z,-2.79
2022-12-11T00:53:15.696Z,-2.78
2022-12-11T00:54:15.674Z,-2.73
2022-12-11T00:55:15.678Z,-2.67
2022-12-11T00:56:15.751Z,-2.67
2022-12-11T00:57:15.649Z,-2.68
2022-12-11T00:58:15.639Z,-2.71
2022-12-11T00:59:15.639Z,-2.74
2022-12-11T01:00:15.630Z,-2.73
2022-12-11T01:01:16.677Z,-2.73
2022-12-11T01:02:15.589Z,-2.67
2022-12-11T01:03:15.696Z,-2.77
2022-12-11T01:04:15.597Z,-2.79
2022-12-11T01:05:15.557Z,-2.85
2022-12-11T01:06:15.536Z,-2.81
2022-12-11T01:07:15.527Z,-2.81
2022-12-11T01:08:15.585Z,-2.84
2022-12-11T01:09:15.513Z,-2.84
2022-12-11T01:10:15.613Z,-2.81
2022-12-11T01:11:15.472Z,-2.85
2022-12-11T01:12:15.468Z,-2.85
2022-12-11T01:13:15.455Z,-2.79
2022-12-11T01:14:15.460Z,-2.82
2022-12-11T01:15:15.450Z,-2.89
2022-12-11T01:16:15.500Z,-2.88
2022-12-11T01:17:15.429Z,-2.91
2022-12-11T01:18:15.408Z,-2.84
2022-12-11T01:19:15.395Z,-2.86
2022-12-11T01:20:15.398Z,-2.94
2022-12-11T01:21:15.367Z,-2.88
2022-12-11T01:22:15.355Z,-2.91
2022-12-11T01:23:15.340Z,-2.97
2022-12-11T01:24:15.334Z,-2.89
2022-12-11T01:25:15.353Z,-2.92
2022-12-11T01:26:15.319Z,-2.94
2022-12-11T01:27:15.298Z,-2.94
2022-12-11T01:28:15.310Z,-2.92
2022-12-11T01:29:15.327Z,-3.00
2022-12-11T01:30:15.284Z,-3.03
2022-12-11T01:31:15.315Z,-2.96
2022-12-11T01:32:15.251Z,-2.88
2022-12-11T01:33:15.232Z,-2.96
2022-12-11T01:34:15.246Z,-2.89
2022-12-11T01:35:15.253Z,-2.88
2022-12-11T01:36:15.203Z,-2.97
2022-12-11T01:37:15.194Z,-2.96
2022-12-11T01:38:15.182Z,-2.92
2022-12-11T01:39:15.189Z,-2.92
2022-12-11T01:40:15.189Z,-2.81
2022-12-11T01:41:15.145Z,-2.86
2022-12-11T01:42:15.144Z,-2.92
2022-12-11T01:43:15.250Z,-2.92
2022-12-11T01:44:15.160Z,-2.94
2022-12-11T01:45:15.117Z,-2.88
2022-12-11T01:46:15.154Z,-2.89
2022-12-11T01:47:15.072Z,-2.85
2022-12-11T01:48:15.071Z,-2.88
2022-12-11T01:49:15.077Z,-2.86
2022-12-11T01:50:15.054Z,-2.88
2022-12-11T01:51:15.030Z,-2.94
2022-12-11T01:52:15.024Z,-3.00
2022-12-11T01:53:15.015Z,-3.00
2022-12-11T01:54:15.024Z,-3.00
2022-12-11T01:55:15.002Z,-2.97
2022-12-11T01:56:14.976Z,-3.00
2022-12-11T01:57:14.958Z,-2.91
2022-12-11T01:58:14.954Z,-2.94
2022-12-11T01:59:14.959Z,-2.91
2022-12-11T02:00:14.959Z,-2.86
2022-12-11T02:01:14.963Z,-2.84
2022-12-11T02:02:14.999Z,-2.85
2022-12-11T02:03:14.896Z,-2.85
2022-12-11T02:04:14.986Z,-2.85
2022-12-11T02:05:14.870Z,-2.84
2022-12-11T02:06:14.864Z,-2.84
2022-12-11T02:07:14.852Z,-2.84
2022-12-11T02:08:14.881Z,-2.79
2022-12-11T02:09:14.826Z,-2.82
2022-12-11T02:10:14.849Z,-2.84
2022-12-11T02:11:14.860Z,-2.79
2022-12-11T02:12:14.797Z,-2.73
2022-12-11T02:13:14.781Z,-2.88
2022-12-11T02:14:14.805Z,-2.78
2022-12-11T02:15:14.762Z,-2.79
2022-12-11T02:16:14.870Z,-2.88
2022-12-11T02:17:14.756Z,-2.94
2022-12-11T02:18:14.756Z,-2.94
2022-12-11T02:19:14.739Z,-2.91
2022-12-11T02:20:14.734Z,-2.96
2022-12-11T02:21:14.714Z,-3.02
2022-12-11T02:22:14.692Z,-3.00
2022-12-11T02:23:14.928Z,-2.88
2022-12-11T02:24:14.669Z,-3.00
2022-12-11T02:25:14.672Z,-2.97
2022-12-11T02:26:14.667Z,-2.92
2022-12-11T02:27:14.647Z,-2.99
2022-12-11T02:28:14.766Z,-3.02
2022-12-11T02:29:14.605Z,-2.92
2022-12-11T02:30:14.622Z,-2.92
2022-12-11T02:31:14.601Z,-3.03
2022-12-11T02:32:14.576Z,-3.00
2022-12-11T02:33:14.562Z,-2.97
2022-12-11T02:34:14.980Z,-3.02
2022-12-11T02:35:14.558Z,-2.99
2022-12-11T02:36:14.539Z,-2.97
2022-12-11T02:37:14.515Z,-3.03
2022-12-11T02:38:15.642Z,-2.97
2022-12-11T02:39:14.493Z,-3.03
2022-12-11T02:40:14.486Z,-3.09
2022-12-11T02:41:14.494Z,-3.05
2022-12-11T02:42:14.467Z,-3.00
2022-12-11T02:43:14.448Z,-2.97
2022-12-11T02:44:14.470Z,-3.05
2022-12-11T02:45:14.423Z,-3.03
2022-12-11T02:46:14.481Z,-2.97
2022-12-11T02:47:14.413Z,-2.99
2022-12-11T02:48:14.395Z,-3.05
2022-12-11T02:49:14.389Z,-3.02
2022-12-11T02:50:14.388Z,-3.03
2022-12-11T02:51:14.396Z,-3.07
2022-12-11T02:52:14.353Z,-3.00
2022-12-11T02:53:14.339Z,-3.09
2022-12-11T02:54:14.334Z,-3.05
2022-12-11T02:55:14.312Z,-3.03
2022-12-11T02:56:14.328Z,-3.05
2022-12-11T02:57:14.292Z,-3.05
2022-12-11T02:58:14.285Z,-2.99
2022-12-11T02:59:14.270Z,-3.05
2022-12-11T03:00:14.259Z,-3.18
2022-12-11T03:01:14.311Z,-3.07
2022-12-11T03:02:14.321Z,-3.07
2022-12-11T03:03:14.223Z,-3.09
2022-12-11T03:04:14.220Z,-3.03
2022-12-11T03:05:14.206Z,-3.05
2022-12-11T03:06:14.209Z,-3.09
2022-12-11T03:07:14.198Z,-3.14
2022-12-11T03:08:14.202Z,-3.05
2022-12-11T03:09:14.158Z,-3.09
2022-12-11T03:10:14.171Z,-3.07
2022-12-11T03:11:14.137Z,-3.24
2022-12-11T03:12:14.131Z,-3.24
2022-12-11T03:13:14.115Z,-3.18
2022-12-11T03:14:14.106Z,-3.18
2022-12-11T03:15:14.118Z,-3.18
2022-12-11T03:16:14.117Z,-3.27
2022-12-11T03:17:14.095Z,-3.31
2022-12-11T03:18:14.058Z,-3.28
2022-12-11T03:19:14.050Z,-3.38
2022-12-11T03:20:14.055Z,-3.28
2022-12-11T03:21:14.032Z,-3.39
2022-12-11T03:22:14.027Z,-3.30
2022-12-11T03:23:14.004Z,-3.28
2022-12-11T03:24:14.066Z,-3.42
2022-12-11T03:25:14.047Z,-3.36
2022-12-11T03:26:13.982Z,-3.36
2022-12-11T03:27:13.977Z,-3.42
2022-12-11T03:28:13.957Z,-3.42
2022-12-11T03:29:13.941Z,-3.39
2022-12-11T03:30:13.923Z,-3.42
2022-12-11T03:31:13.978Z,-3.36
2022-12-11T03:32:13.916Z,-3.48
2022-12-11T03:33:13.894Z,-3.54
2022-12-11T03:34:13.878Z,-3.48
2022-12-11T03:35:14.150Z,-3.43
2022-12-11T03:36:13.856Z,-3.53
2022-12-11T03:37:14.042Z,-3.48
2022-12-11T03:38:13.850Z,-3.48
2022-12-11T03:39:13.825Z,-3.46
2022-12-11T03:40:13.809Z,-3.48
2022-12-11T03:41:13.836Z,-3.48
2022-12-11T03:42:13.790Z,-3.52
2022-12-11T03:43:13.803Z,-3.62
2022-12-11T03:44:13.764Z,-3.53
2022-12-11T03:45:13.890Z,-3.56
2022-12-11T03:46:13.820Z,-3.64
2022-12-11T03:47:13.737Z,-3.62
2022-12-11T03:48:13.739Z,-3.54
2022-12-11T03:49:13.717Z,-3.60
2022-12-11T03:50:13.706Z,-3.54
2022-12-11T03:51:13.703Z,-3.54
2022-12-11T03:52:13.678Z,-3.54
2022-12-11T03:53:13.692Z,-3.48
2022-12-11T03:54:13.667Z,-3.53
2022-12-11T03:55:13.645Z,-3.60
2022-12-11T03:56:13.637Z,-3.53
2022-12-11T03:57:13.627Z,-3.56
2022-12-11T03:58:13.634Z,-3.49
2022-12-11T03:59:13.600Z,-3.53
2022-12-11T04:00:13.585Z,-3.48
2022-12-11T04:01:13.644Z,-3.48
2022-12-11T04:02:13.572Z,-3.52
2022-12-11T04:03:14.375Z,-3.54
2022-12-11T04:04:13.605Z,-3.54
2022-12-11T04:05:13.909Z,-3.53
2022-12-11T04:06:13.533Z,-3.53
2022-12-11T04:07:13.514Z,-3.54
2022-12-11T04:08:13.577Z,-3.54
2022-12-11T04:09:13.525Z,-3.54
2022-12-11T04:10:13.493Z,-3.49
2022-12-11T04:11:13.511Z,-3.57
2022-12-11T04:12:13.459Z,-3.52
2022-12-11T04:13:13.457Z,-3.49
2022-12-11T04:14:13.457Z,-3.46
2022-12-11T04:15:13.719Z,-3.53
2022-12-11T04:16:13.496Z,-3.52
2022-12-11T04:17:13.408Z,-3.46
2022-12-11T04:18:13.394Z,-3.54
2022-12-11T04:19:13.408Z,-3.43
2022-12-11T04:20:13.372Z,-3.48
2022-12-11T04:21:13.371Z,-3.46
2022-12-11T04:22:13.356Z,-3.54
2022-12-11T04:23:13.340Z,-3.46
2022-12-11T04:24:13.346Z,-3.49
2022-12-11T04:25:13.729Z,-3.49
2022-12-11T04:26:13.316Z,-3.49
2022-12-11T04:27:13.334Z,-3.45
2022-12-11T04:28:13.296Z,-3.48
2022-12-11T04:29:13.270Z,-3.48
2022-12-11T04:30:13.256Z,-3.60
2022-12-11T04:31:13.306Z,-3.63
2022-12-11T04:32:13.235Z,-3.63
2022-12-11T04:33:13.228Z,-3.57
2022-12-11T04:34:13.274Z,-3.52
2022-12-11T04:35:13.505Z,-3.53
2022-12-11T04:36:13.193Z,-3.57
2022-12-11T04:37:13.185Z,-3.53
2022-12-11T04:38:13.176Z,-3.57
2022-12-11T04:39:13.170Z,-3.69
2022-12-11T04:40:13.164Z,-3.69
2022-12-11T04:41:13.163Z,-3.78
2022-12-11T04:42:13.147Z,-3.85
2022-12-11T04:43:13.120Z,-3.81
2022-12-11T04:44:13.105Z,-3.78
2022-12-11T04:45:13.405Z,-3.79
2022-12-11T04:46:13.147Z,-3.90
2022-12-11T04:47:13.100Z,-3.88
2022-12-11T04:48:13.060Z,-3.86
2022-12-11T04:49:13.051Z,-3.88
2022-12-11T04:50:13.051Z,-3.91
2022-12-11T04:51:13.036Z,-3.78
2022-12-11T04:52:13.033Z,-3.83
2022-12-11T04:53:13.007Z,-3.85
2022-12-11T04:54:12.992Z,-3.88
2022-12-11T04:55:13.560Z,-3.83
2022-12-11T04:56:12.968Z,-3.90
2022-12-11T04:57:12.997Z,-3.85
2022-12-11T04:58:12.953Z,-3.88
2022-12-11T04:59:12.941Z,-3.90
2022-12-11T05:00:12.924Z,-3.83
2022-12-11T05:01:13.117Z,-3.91
2022-12-11T05:02:12.936Z,-3.86
2022-12-11T05:03:12.950Z,-3.86
2022-12-11T05:04:12.883Z,-3.83
2022-12-11T05:05:13.338Z,-3.85
2022-12-11T05:06:12.865Z,-3.88
2022-12-11T05:07:12.852Z,-3.83
2022-12-11T05:08:12.909Z,-3.79
2022-12-11T05:09:12.827Z,-3.88
2022-12-11T05:10:12.813Z,-3.91
2022-12-11T05:11:12.808Z,-3.85
2022-12-11T05:12:12.856Z,-3.83
2022-12-11T05:13:12.801Z,-3.81
2022-12-11T05:14:12.777Z,-3.88
2022-12-11T05:15:13.036Z,-3.85
2022-12-11T05:16:12.774Z,-3.79
2022-12-11T05:17:12.767Z,-3.83
2022-12-11T05:18:12.747Z,-3.85
2022-12-11T05:19:12.715Z,-3.86
2022-12-11T05:20:12.702Z,-3.85
2022-12-11T05:21:12.732Z,-3.83
2022-12-11T05:22:12.675Z,-3.91
2022-12-11T05:23:13.605Z,-3.86
2022-12-11T05:24:13.373Z,-3.83
2022-12-11T05:25:13.492Z,-3.93
2022-12-11T05:26:13.295Z,-3.83
2022-12-11T05:27:13.122Z,-3.83
2022-12-11T05:28:13.780Z,-3.83
2022-12-11T05:29:12.610Z,-3.88
2022-12-11T05:30:12.600Z,-3.86
2022-12-11T05:31:12.651Z,-3.88
2022-12-11T05:32:12.587Z,-3.90
2022-12-11T05:33:12.572Z,-3.88
2022-12-11T05:34:12.565Z,-3.90
2022-12-11T05:35:12.716Z,-3.86
2022-12-11T05:36:12.521Z,-3.93
2022-12-11T05:37:12.562Z,-3.86
2022-12-11T05:38:12.499Z,-3.85
2022-12-11T05:39:12.493Z,-3.88
2022-12-11T05:40:12.484Z,-3.83
2022-12-11T05:41:12.487Z,-3.88
2022-12-11T05:42:12.514Z,-3.96
2022-12-11T05:43:12.450Z,-3.97
2022-12-11T05:44:12.470Z,-3.83
2022-12-11T05:45:12.791Z,-3.91
2022-12-11T05:46:12.477Z,-3.88
2022-12-11T05:47:12.406Z,-3.88
2022-12-11T05:48:12.403Z,-4.01
2022-12-11T05:49:12.388Z,-3.91
2022-12-11T05:50:12.380Z,-4.03
2022-12-11T05:51:12.358Z,-4.00
2022-12-11T05:52:12.345Z,-4.06
2022-12-11T05:53:12.358Z,-3.93
2022-12-11T05:54:12.320Z,-3.93
2022-12-11T05:55:12.538Z,-3.91
2022-12-11T05:56:13.561Z,-3.93
2022-12-11T05:57:12.288Z,-3.93
2022-12-11T05:58:12.282Z,-3.94
2022-12-11T05:59:12.271Z,-3.90
2022-12-11T06:00:12.250Z,-3.86
2022-12-11T06:01:12.278Z,-3.81
2022-12-11T06:02:12.402Z,-3.85
2022-12-11T06:03:12.369Z,-3.85
2022-12-11T06:04:12.210Z,-3.83
2022-12-11T06:05:12.471Z,-3.86
2022-12-11T06:06:12.204Z,-3.79
2022-12-11T06:07:12.183Z,-3.82
2022-12-11T06:08:12.247Z,-3.93
2022-12-11T06:09:12.157Z,-3.81
2022-12-11T06:10:12.146Z,-3.78
2022-12-11T06:11:12.895Z,-3.76
2022-12-11T06:12:12.654Z,-3.82
2022-12-11T06:13:12.697Z,-3.83
2022-12-11T06:14:12.460Z,-3.85
2022-12-11T06:15:12.371Z,-3.82
2022-12-11T06:16:12.115Z,-3.78
2022-12-11T06:17:12.258Z,-3.72
2022-12-11T06:18:12.095Z,-3.91
2022-12-11T06:19:12.071Z,-3.90
2022-12-11T06:20:12.028Z,-3.83
2022-12-11T06:21:12.027Z,-3.82
2022-12-11T06:22:12.042Z,-3.81
2022-12-11T06:23:12.006Z,-3.83
2022-12-11T06:24:12.007Z,-3.88
2022-12-11T06:25:12.147Z,-3.83
2022-12-11T06:26:11.991Z,-3.78
2022-12-11T06:27:11.978Z,-3.79
2022-12-11T06:28:11.950Z,-3.81
2022-12-11T06:29:13.195Z,-3.85
2022-12-11T06:30:11.921Z,-3.83
2022-12-11T06:31:11.997Z,-3.82
2022-12-11T06:32:11.948Z,-3.91
2022-12-11T06:33:11.928Z,-3.93
2022-12-11T06:34:11.882Z,-3.90
2022-12-11T06:35:12.311Z,-3.88
2022-12-11T06:36:11.852Z,-3.93
2022-12-11T06:37:11.924Z,-3.99
2022-12-11T06:38:11.927Z,-3.96
2022-12-11T06:39:11.981Z,-3.91
2022-12-11T06:40:11.811Z,-3.85
2022-12-11T06:41:11.798Z,-3.86
2022-12-11T06:42:11.807Z,-3.90
2022-12-11T06:43:11.780Z,-3.86
2022-12-11T06:44:11.765Z,-3.97
2022-12-11T06:45:12.048Z,-3.99
2022-12-11T06:46:11.781Z,-4.01
2022-12-11T06:47:11.791Z,-4.04
2022-12-11T06:48:11.720Z,-4.00
2022-12-11T06:49:11.716Z,-3.97
2022-12-11T06:50:11.729Z,-3.97
2022-12-11T06:51:11.694Z,-3.94
2022-12-11T06:52:18.064Z,-3.96
2022-12-11T06:53:12.689Z,-4.00
2022-12-11T06:54:11.679Z,-4.01
2022-12-11T06:55:11.876Z,-3.97
2022-12-11T06:56:11.667Z,-4.07
2022-12-11T06:57:11.634Z,-4.00
2022-12-11T06:58:11.611Z,-3.96
2022-12-11T06:59:11.625Z,-3.93
2022-12-11T07:00:11.587Z,-3.90
2022-12-11T07:01:11.640Z,-3.91
2022-12-11T07:02:11.598Z,-3.93
2022-12-11T07:03:11.565Z,-3.99
2022-12-11T07:04:11.559Z,-3.99
2022-12-11T07:05:11.799Z,-3.93
2022-12-11T07:06:11.578Z,-4.01
2022-12-11T07:07:11.512Z,-3.99
2022-12-11T07:08:11.555Z,-3.96
2022-12-11T07:09:11.525Z,-4.01
2022-12-11T07:10:11.471Z,-3.99
2022-12-11T07:11:11.474Z,-4.03
2022-12-11T07:12:11.455Z,-4.04
2022-12-11T07:13:11.449Z,-4.00
2022-12-11T07:14:11.447Z,-3.96
2022-12-11T07:15:11.712Z,-4.01
2022-12-11T07:16:11.680Z,-4.00
2022-12-11T07:17:11.412Z,-4.04
2022-12-11T07:18:11.392Z,-4.00
2022-12-11T07:19:11.402Z,-3.96
2022-12-11T07:20:11.368Z,-3.93
2022-12-11T07:21:11.361Z,-3.99
2022-12-11T07:22:11.352Z,-3.96
2022-12-11T07:23:11.329Z,-3.90
2022-12-11T07:24:11.337Z,-4.11
2022-12-11T07:25:11.661Z,-3.91
2022-12-11T07:26:11.325Z,-3.93
2022-12-11T07:27:11.285Z,-3.94
2022-12-11T07:28:16.543Z,-3.93
2022-12-11T07:29:12.268Z,-3.93
2022-12-11T07:30:11.263Z,-3.86
2022-12-11T07:31:11.262Z,-3.99
2022-12-11T07:32:11.387Z,-3.97
2022-12-11T07:33:11.222Z,-4.00
2022-12-11T07:34:11.275Z,-4.07
2022-12-11T07:35:11.606Z,-4.06
2022-12-11T07:36:11.202Z,-4.00
2022-12-11T07:37:11.195Z,-4.00
2022-12-11T07:38:11.186Z,-3.96
2022-12-11T07:39:11.191Z,-4.01
2022-12-11T07:40:11.150Z,-4.00
2022-12-11T07:41:11.131Z,-4.03
2022-12-11T07:42:11.128Z,-4.12
2022-12-11T07:43:11.116Z,-4.04
2022-12-11T07:44:11.135Z,-3.96
2022-12-11T07:45:11.322Z,-4.01
2022-12-11T07:46:11.166Z,-4.11
2022-12-11T07:47:11.081Z,-4.01
2022-12-11T07:48:11.077Z,-4.01
2022-12-11T07:49:11.077Z,-4.00
2022-12-11T07:50:11.056Z,-3.99
2022-12-11T07:51:11.044Z,-3.90
2022-12-11T07:52:11.028Z,-3.88
2022-12-11T07:53:11.024Z,-3.88
2022-12-11T07:54:11.049Z,-3.91
2022-12-11T07:55:11.209Z,-3.83
2022-12-11T07:56:10.973Z,-3.83
2022-12-11T07:57:14.180Z,-3.78
2022-12-11T07:58:10.983Z,-3.85
2022-12-11T07:59:11.437Z,-3.81
2022-12-11T08:00:10.934Z,-3.83
2022-12-11T08:01:10.980Z,-3.79
2022-12-11T08:02:10.972Z,-3.81
2022-12-11T08:03:10.898Z,-3.72
2022-12-11T08:04:10.910Z,-3.76
2022-12-11T08:05:11.086Z,-3.69
2022-12-11T08:06:10.867Z,-3.78
2022-12-11T08:07:10.852Z,-3.67
2022-12-11T08:08:10.899Z,-3.64
2022-12-11T08:09:14.695Z,-3.72
2022-12-11T08:10:11.815Z,-3.82
2022-12-11T08:11:10.811Z,-3.81
2022-12-11T08:12:10.795Z,-3.85
2022-12-11T08:13:10.808Z,-3.72
2022-12-11T08:14:10.783Z,-3.78
2022-12-11T08:15:11.032Z,-3.64
2022-12-11T08:16:10.760Z,-3.85
2022-12-11T08:17:10.726Z,-3.85
2022-12-11T08:18:10.751Z,-3.71
2022-12-11T08:19:11.153Z,-3.71
2022-12-11T08:20:10.720Z,-3.75
2022-12-11T08:21:10.725Z,-3.81
2022-12-11T08:22:10.713Z,-3.66
2022-12-11T08:23:10.674Z,-3.71
2022-12-11T08:24:10.665Z,-3.75
2022-12-11T08:25:10.960Z,-3.72
2022-12-11T08:26:10.688Z,-3.57
2022-12-11T08:27:10.631Z,-3.49
2022-12-11T08:28:10.646Z,-3.56
2022-12-11T08:29:10.617Z,-3.60
2022-12-11T08:30:10.637Z,-3.62
2022-12-11T08:31:10.604Z,-3.62
2022-12-11T08:32:12.406Z,-3.56
2022-12-11T08:33:10.575Z,-3.62
2022-12-11T08:34:10.647Z,-3.53
2022-12-11T08:35:10.723Z,-3.63
2022-12-11T08:36:10.535Z,-3.54
2022-12-11T08:37:10.523Z,-3.49
2022-12-11T08:38:10.525Z,-3.54
2022-12-11T08:39:10.498Z,-3.53
2022-12-11T08:40:10.488Z,-3.60
2022-12-11T08:41:10.488Z,-3.64
2022-12-11T08:42:10.468Z,-3.56
2022-12-11T08:43:10.459Z,-3.52
2022-12-11T08:44:15.809Z,-3.52
2022-12-11T08:45:11.776Z,-3.53
2022-12-11T08:46:10.467Z,-3.57
2022-12-11T08:47:10.419Z,-3.57
2022-12-11T08:48:10.421Z,-3.53
2022-12-11T08:49:10.419Z,-3.52
2022-12-11T08:50:10.379Z,-3.60
2022-12-11T08:51:10.373Z,-3.66
2022-12-11T08:52:10.352Z,-3.60
2022-12-11T08:53:10.339Z,-3.60
2022-12-11T08:54:10.350Z,-3.59
2022-12-11T08:55:10.579Z,-3.62
2022-12-11T08:56:10.333Z,-3.75
2022-12-11T08:57:10.301Z,-3.67
2022-12-11T08:58:10.288Z,-3.75
2022-12-11T08:59:10.280Z,-3.57
2022-12-11T09:00:10.296Z,-3.33
2022-12-11T09:01:10.378Z,-3.18
2022-12-11T09:02:10.889Z,-3.12
2022-12-11T09:03:12.903Z,-3.03
2022-12-11T09:04:10.247Z,-3.00
2022-12-11T09:05:10.594Z,-3.15
2022-12-11T09:06:13.025Z,-3.27
2022-12-11T09:07:10.190Z,-3.21
2022-12-11T09:08:10.232Z,-3.18
2022-12-11T09:09:10.168Z,-3.14
2022-12-11T09:10:10.156Z,-3.15
2022-12-11T09:11:10.156Z,-3.00
2022-12-11T09:12:10.271Z,-2.96
2022-12-11T09:13:10.116Z,-2.94
2022-12-11T09:14:10.110Z,-3.02
2022-12-11T09:15:10.662Z,-3.10
2022-12-11T09:16:10.134Z,-3.03
2022-12-11T09:17:10.095Z,-2.97
2022-12-11T09:18:10.064Z,-3.06
2022-12-11T09:19:10.065Z,-3.05
2022-12-11T09:20:10.064Z,-3.12
2022-12-11T09:21:10.037Z,-3.14
2022-12-11T09:22:10.014Z,-3.14
2022-12-11T09:23:10.006Z,-3.10
2022-12-11T09:24:09.998Z,-3.20
2022-12-11T09:25:10.199Z,-3.15
2022-12-11T09:26:09.986Z,-3.09
2022-12-11T09:27:09.966Z,-3.03
2022-12-11T09:28:09.958Z,-3.09
2022-12-11T09:29:10.017Z,-3.07
2022-12-11T09:30:09.933Z,-3.02
2022-12-11T09:31:09.956Z,-2.96
2022-12-11T09:32:09.943Z,-2.96
2022-12-11T09:33:09.898Z,-3.05
2022-12-11T09:34:09.910Z,-3.05
2022-12-11T09:35:10.222Z,-2.97
2022-12-11T09:36:09.872Z,-2.97
2022-12-11T09:38:02.172Z,-2.88
2022-12-11T09:39:02.302Z,-2.96
2022-12-11T09:40:07.372Z,-2.85
2022-12-11T09:41:03.261Z,-2.92
2022-12-11T09:42:02.130Z,-2.85
2022-12-11T09:43:02.120Z,-2.85
2022-12-11T09:44:03.034Z,-2.82
2022-12-11T09:45:02.089Z,-2.92
2022-12-11T09:46:02.159Z,-2.89
2022-12-11T09:47:02.078Z,-2.85
2022-12-11T09:48:02.056Z,-2.82
2022-12-11T09:49:02.070Z,-2.84
2022-12-11T09:50:02.023Z,-2.78
2022-12-11T09:51:02.027Z,-2.70
2022-12-11T09:52:02.010Z,-2.70
2022-12-11T09:53:02.032Z,-2.70
2022-12-11T09:54:02.006Z,-2.67
2022-12-11T09:55:01.989Z,-2.73
2022-12-11T09:56:01.976Z,-2.74
2022-12-11T09:57:02.131Z,-2.73
2022-12-11T09:58:01.971Z,-2.84
2022-12-11T09:59:01.939Z,-2.77
2022-12-11T10:00:05.150Z,-2.85
2022-12-11T10:01:02.015Z,-2.81
2022-12-11T10:02:02.008Z,-2.71
2022-12-11T10:03:02.113Z,-2.78
2022-12-11T10:04:02.044Z,-2.78
2022-12-11T10:05:01.994Z,-2.73
2022-12-11T10:06:04.864Z,-2.84
2022-12-11T10:07:01.930Z,-2.77
2022-12-11T10:08:01.917Z,-2.85
2022-12-11T10:09:01.841Z,-2.85
2022-12-11T10:10:01.841Z,-2.88
2022-12-11T10:11:01.810Z,-2.77
2022-12-11T10:12:01.806Z,-2.82
2022-12-11T10:13:01.786Z,-2.86
2022-12-11T10:14:01.786Z,-2.81
2022-12-11T10:15:01.836Z,-2.77
2022-12-11T10:16:01.787Z,-2.68
2022-12-11T10:17:01.769Z,-2.84
2022-12-11T10:18:05.144Z,-2.74
2022-12-11T10:19:01.765Z,-2.85
2022-12-11T10:20:01.772Z,-2.71
2022-12-11T10:21:01.701Z,-2.63
2022-12-11T10:22:24.047Z,-2.58
2022-12-11T10:23:27.878Z,-2.58
2022-12-11T10:24:01.789Z,-2.60
2022-12-11T10:25:11.299Z,-2.53
2022-12-11T10:26:17.569Z,-2.42
2022-12-11T10:27:09.374Z,-2.53
2022-12-11T10:28:01.722Z,-2.53
2022-12-11T10:29:01.674Z,-2.50
2022-12-11T10:30:01.633Z,-2.48
2022-12-11T10:31:01.618Z,-2.60
2022-12-11T10:32:01.593Z,-2.60
2022-12-11T10:33:01.568Z,-2.63
2022-12-11T10:34:01.578Z,-2.61
2022-12-11T10:35:01.559Z,-2.60
2022-12-11T10:36:01.531Z,-2.56
2022-12-11T10:37:01.520Z,-2.48
2022-12-11T10:38:01.528Z,-2.52
2022-12-11T10:39:01.689Z,-2.70
2022-12-11T10:40:01.507Z,-2.73
2022-12-11T10:41:01.482Z,-2.74
2022-12-11T10:42:01.470Z,-2.67
2022-12-11T10:43:01.470Z,-2.70
2022-12-11T10:44:01.443Z,-2.60
2022-12-11T10:45:01.434Z,-2.56
2022-12-11T10:46:01.506Z,-2.49
2022-12-11T10:47:01.401Z,-2.53
2022-12-11T10:48:01.422Z,-2.49
2022-12-11T10:49:01.389Z,-2.48
2022-12-11T10:50:01.394Z,-2.52
2022-12-11T10:51:01.362Z,-2.60
2022-12-11T10:52:01.358Z,-2.64
2022-12-11T10:53:01.368Z,-2.53
2022-12-11T10:54:06.876Z,-2.68
2022-12-11T10:55:02.338Z,-2.84
2022-12-11T10:56:01.328Z,-2.70
2022-12-11T10:57:01.298Z,-2.68
2022-12-11T10:58:01.288Z,-2.64
2022-12-11T10:59:01.292Z,-2.55
2022-12-11T11:00:01.269Z,-2.60
2022-12-11T11:01:01.350Z,-2.61
2022-12-11T11:02:01.376Z,-2.56
2022-12-11T11:03:01.280Z,-2.60
2022-12-11T11:04:01.239Z,-2.82
2022-12-11T11:05:01.237Z,-2.85
2022-12-11T11:06:01.201Z,-2.89
2022-12-11T11:07:01.195Z,-2.99
2022-12-11T11:08:01.185Z,-3.02
2022-12-11T11:09:01.152Z,-3.05
2022-12-11T11:10:01.223Z,-3.10
2022-12-11T11:11:01.139Z,-3.20
2022-12-11T11:12:07.430Z,-3.21
2022-12-11T11:13:02.118Z,-3.18
2022-12-11T11:14:01.118Z,-3.25
2022-12-11T11:15:01.088Z,-3.25
2022-12-11T11:16:01.147Z,-3.23
2022-12-11T11:17:01.078Z,-3.23
2022-12-11T11:18:01.068Z,-3.21
2022-12-11T11:19:01.072Z,-3.18
2022-12-11T11:20:01.047Z,-3.33
2022-12-11T11:21:01.055Z,-3.21
2022-12-11T11:22:01.048Z,-3.23
2022-12-11T11:23:01.030Z,-3.24
2022-12-11T11:24:01.007Z,-3.18
2022-12-11T11:25:01.061Z,-3.25
2022-12-11T11:26:00.980Z,-3.21
2022-12-11T11:27:15.977Z,-3.20
2022-12-11T11:28:01.970Z,-3.02
2022-12-11T11:29:00.947Z,-2.94
2022-12-11T11:30:00.932Z,-2.92
2022-12-11T11:31:00.975Z,-2.85
2022-12-11T11:32:00.974Z,-2.84
2022-12-11T11:33:00.936Z,-2.77
2022-12-11T11:34:00.905Z,-2.81
2022-12-11T11:35:00.870Z,-2.78
2022-12-11T11:36:00.875Z,-2.73
2022-12-11T11:37:00.859Z,-2.78
2022-12-11T11:38:00.849Z,-2.70
2022-12-11T11:39:00.928Z,-2.71
2022-12-11T11:40:00.816Z,-2.78
2022-12-11T11:41:05.689Z,-2.85
2022-12-11T11:42:01.938Z,-2.86
2022-12-11T11:43:00.809Z,-2.96
2022-12-11T11:44:00.776Z,-2.88
2022-12-11T11:45:00.923Z,-2.86
2022-12-11T11:46:00.762Z,-2.96
2022-12-11T11:47:00.769Z,-2.88
2022-12-11T11:48:00.901Z,-2.97
2022-12-11T11:49:00.720Z,-2.86
2022-12-11T11:50:00.722Z,-2.89
2022-12-11T11:51:00.727Z,-2.88
2022-12-11T11:52:00.689Z,-3.00
2022-12-11T11:53:00.697Z,-3.03
2022-12-11T11:54:00.664Z,-3.03
2022-12-11T11:55:00.762Z,-3.12
2022-12-11T11:56:02.466Z,-3.02
2022-12-11T11:57:00.667Z,-3.09
2022-12-11T11:58:00.646Z,-3.21
2022-12-11T11:59:00.778Z,-3.23
2022-12-11T12:00:00.891Z,-3.25
2022-12-11T12:01:00.773Z,-3.28
2022-12-11T12:02:00.608Z,-3.31
2022-12-11T12:03:00.704Z,-3.31
2022-12-11T12:04:00.735Z,-3.42
2022-12-11T12:05:00.831Z,-3.36
2022-12-11T12:06:00.600Z,-3.41
2022-12-11T12:07:00.523Z,-3.39
2022-12-11T12:08:00.674Z,-3.49
2022-12-11T12:09:00.574Z,-3.39
2022-12-11T12:10:00.676Z,-3.39
2022-12-11T12:11:00.491Z,-3.43
2022-12-11T12:12:00.620Z,-3.42
2022-12-11T12:13:00.509Z,-3.48
2022-12-11T12:14:00.512Z,-3.41
2022-12-11T12:15:00.655Z,-3.41
2022-12-11T12:16:00.583Z,-3.30
2022-12-11T12:17:00.581Z,-3.36
2022-12-11T12:18:00.521Z,-3.30
2022-12-11T12:19:00.395Z,-3.31
2022-12-11T12:20:00.709Z,-3.31
2022-12-11T12:21:00.448Z,-3.31
2022-12-11T12:22:00.375Z,-3.33
2022-12-11T12:23:00.442Z,-3.21
2022-12-11T12:24:00.364Z,-3.21
2022-12-11T12:25:00.811Z,-3.20
2022-12-11T12:26:00.337Z,-3.20
2022-12-11T12:27:00.494Z,-3.15
2022-12-11T12:28:00.321Z,-3.31
2022-12-11T12:29:00.278Z,-3.27
2022-12-11T12:30:00.282Z,-3.23
2022-12-11T12:31:00.474Z,-3.23
2022-12-11T12:32:00.654Z,-3.27
2022-12-11T12:33:00.951Z,-3.23
2022-12-11T12:34:00.519Z,-3.24
2022-12-11T12:35:00.479Z,-3.18
2022-12-11T12:36:06.400Z,-3.23
2022-12-11T12:37:01.200Z,-3.09
2022-12-11T12:38:00.231Z,-3.23
2022-12-11T12:39:00.191Z,-3.24
2022-12-11T12:40:00.204Z,-3.24
2022-12-11T12:41:00.154Z,-3.20
2022-12-11T12:42:04.118Z,-3.30
2022-12-11T12:43:01.133Z,-3.43
2022-12-11T12:44:00.196Z,-3.42
2022-12-11T12:45:00.116Z,-3.42
2022-12-11T12:46:00.166Z,-3.39
2022-12-11T12:47:00.097Z,-3.41
2022-12-11T12:48:00.083Z,-3.46
2022-12-11T12:49:00.091Z,-3.35
2022-12-11T12:50:00.054Z,-3.38
2022-12-11T12:51:00.044Z,-3.48
2022-12-11T12:52:00.039Z,-3.35
2022-12-11T12:53:00.037Z,-3.48